sensor_id;sensor_type;location;lat;lon;timestamp;P1;durP1;ratioP1;P2;durP2;ratioP2
20104;SDS011;10212;42.714;23.310;2024-01-06T00:05:30;73.45;;;36.55;;
20104;SDS011;10212;42.714;23.310;2024-01-06T00:15:30;71.85;;;36.53;;
20104;SDS011;10212;42.714;23.310;2024-01-06T00:25:31;73.47;;;38.63;;
20104;SDS011;10212;42.714;23.310;2024-01-06T00:35:31;85.95;;;41.92;;
20104;SDS011;10212;42.714;23.310;2024-01-06T00:45:32;88.35;;;44.67;;
20104;SDS011;10212;42.714;23.310;2024-01-06T00:55:32;87.05;;;44.45;;
20104;SDS011;10212;42.714;23.310;2024-01-06T01:05:33;85.10;;;43.03;;
20104;SDS011;10212;42.714;23.310;2024-01-06T01:15:33;79.90;;;40.05;;
20104;SDS011;10212;42.714;23.310;2024-01-06T01:25:35;75.13;;;38.88;;
20104;SDS011;10212;42.714;23.310;2024-01-06T01:35:35;74.03;;;38.97;;
20104;SDS011;10212;42.714;23.310;2024-01-06T01:45:35;75.18;;;39.90;;
20104;SDS011;10212;42.714;23.310;2024-01-06T01:55:36;77.47;;;39.03;;
20104;SDS011;10212;42.714;23.310;2024-01-06T02:05:36;72.65;;;38.97;;
20104;SDS011;10212;42.714;23.310;2024-01-06T02:15:37;78.28;;;40.20;;
20104;SDS011;10212;42.714;23.310;2024-01-06T02:25:37;83.90;;;40.67;;
20104;SDS011;10212;42.714;23.310;2024-01-06T02:35:38;75.00;;;39.78;;
20104;SDS011;10212;42.714;23.310;2024-01-06T02:45:40;76.00;;;39.60;;
20104;SDS011;10212;42.714;23.310;2024-01-06T02:55:40;66.68;;;38.30;;
20104;SDS011;10212;42.714;23.310;2024-01-06T03:05:40;63.53;;;35.13;;
20104;SDS011;10212;42.714;23.310;2024-01-06T03:15:41;66.13;;;35.30;;
20104;SDS011;10212;42.714;23.310;2024-01-06T03:25:41;45.75;;;23.92;;
20104;SDS011;10212;42.714;23.310;2024-01-06T03:35:42;51.97;;;27.05;;
20104;SDS011;10212;42.714;23.310;2024-01-06T03:45:42;63.75;;;32.90;;
20104;SDS011;10212;42.714;23.310;2024-01-06T03:55:43;63.17;;;33.97;;
20104;SDS011;10212;42.714;23.310;2024-01-06T04:05:43;81.45;;;43.03;;
20104;SDS011;10212;42.714;23.310;2024-01-06T04:15:44;79.43;;;43.40;;
20104;SDS011;10212;42.714;23.310;2024-01-06T04:25:44;93.05;;;48.60;;
20104;SDS011;10212;42.714;23.310;2024-01-06T04:35:45;95.07;;;52.47;;
20104;SDS011;10212;42.714;23.310;2024-01-06T04:45:45;93.18;;;47.20;;
20104;SDS011;10212;42.714;23.310;2024-01-06T04:55:45;87.63;;;45.15;;
20104;SDS011;10212;42.714;23.310;2024-01-06T05:05:46;92.28;;;46.22;;
20104;SDS011;10212;42.714;23.310;2024-01-06T05:15:46;80.60;;;40.30;;
20104;SDS011;10212;42.714;23.310;2024-01-06T05:25:47;91.43;;;45.60;;
20104;SDS011;10212;42.714;23.310;2024-01-06T05:35:47;83.50;;;43.60;;
20104;SDS011;10212;42.714;23.310;2024-01-06T05:45:48;82.90;;;42.42;;
20104;SDS011;10212;42.714;23.310;2024-01-06T05:55:48;46.70;;;24.27;;
20104;SDS011;10212;42.714;23.310;2024-01-06T06:05:49;45.72;;;23.48;;
20104;SDS011;10212;42.714;23.310;2024-01-06T06:15:49;82.47;;;40.30;;
20104;SDS011;10212;42.714;23.310;2024-01-06T06:25:50;87.90;;;44.55;;
20104;SDS011;10212;42.714;23.310;2024-01-06T06:35:51;78.85;;;41.22;;
20104;SDS011;10212;42.714;23.310;2024-01-06T06:45:51;84.38;;;43.17;;
20104;SDS011;10212;42.714;23.310;2024-01-06T06:55:52;81.22;;;42.30;;
20104;SDS011;10212;42.714;23.310;2024-01-06T07:05:52;79.65;;;41.28;;
20104;SDS011;10212;42.714;23.310;2024-01-06T07:15:53;71.82;;;38.00;;
20104;SDS011;10212;42.714;23.310;2024-01-06T07:25:55;68.80;;;33.65;;
20104;SDS011;10212;42.714;23.310;2024-01-06T07:35:55;61.58;;;31.58;;
20104;SDS011;10212;42.714;23.310;2024-01-06T07:45:56;91.10;;;46.60;;
20104;SDS011;10212;42.714;23.310;2024-01-06T07:55:56;98.30;;;50.17;;
20104;SDS011;10212;42.714;23.310;2024-01-06T08:05:57;70.70;;;37.88;;
20104;SDS011;10212;42.714;23.310;2024-01-06T08:15:57;65.10;;;34.20;;
20104;SDS011;10212;42.714;23.310;2024-01-06T08:25:58;65.47;;;34.95;;
20104;SDS011;10212;42.714;23.310;2024-01-06T08:35:58;59.60;;;34.13;;
20104;SDS011;10212;42.714;23.310;2024-01-06T08:45:59;56.45;;;30.25;;
20104;SDS011;10212;42.714;23.310;2024-01-06T08:56:00;49.00;;;28.58;;
20104;SDS011;10212;42.714;23.310;2024-01-06T09:06:00;43.92;;;25.48;;
20104;SDS011;10212;42.714;23.310;2024-01-06T09:16:01;48.00;;;23.63;;
20104;SDS011;10212;42.714;23.310;2024-01-06T09:26:02;41.10;;;21.47;;
20104;SDS011;10212;42.714;23.310;2024-01-06T09:36:03;33.15;;;17.33;;
20104;SDS011;10212;42.714;23.310;2024-01-06T09:46:10;32.42;;;17.42;;
20104;SDS011;10212;42.714;23.310;2024-01-06T09:56:15;33.15;;;18.30;;
20104;SDS011;10212;42.714;23.310;2024-01-06T10:06:17;29.25;;;13.35;;
20104;SDS011;10212;42.714;23.310;2024-01-06T10:16:18;27.75;;;13.25;;
20104;SDS011;10212;42.714;23.310;2024-01-06T10:26:19;23.85;;;13.68;;
20104;SDS011;10212;42.714;23.310;2024-01-06T10:36:20;20.40;;;11.57;;
20104;SDS011;10212;42.714;23.310;2024-01-06T10:46:20;20.83;;;10.05;;
20104;SDS011;10212;42.714;23.310;2024-01-06T10:56:22;25.40;;;13.20;;
20104;SDS011;10212;42.714;23.310;2024-01-06T11:06:25;21.88;;;12.20;;
20104;SDS011;10212;42.714;23.310;2024-01-06T11:16:37;23.33;;;12.27;;
20104;SDS011;10212;42.714;23.310;2024-01-06T11:26:44;29.08;;;14.05;;
20104;SDS011;10212;42.714;23.310;2024-01-06T11:36:45;28.35;;;14.27;;
20104;SDS011;10212;42.714;23.310;2024-01-06T11:46:48;27.00;;;14.88;;
20104;SDS011;10212;42.714;23.310;2024-01-06T11:56:51;25.40;;;12.30;;
20104;SDS011;10212;42.714;23.310;2024-01-06T12:07:06;16.10;;;9.07;;
20104;SDS011;10212;42.714;23.310;2024-01-06T12:17:07;14.40;;;6.72;;
20104;SDS011;10212;42.714;23.310;2024-01-06T12:27:08;16.05;;;7.43;;
20104;SDS011;10212;42.714;23.310;2024-01-06T12:37:12;11.73;;;7.00;;
20104;SDS011;10212;42.714;23.310;2024-01-06T12:47:13;15.02;;;7.05;;
20104;SDS011;10212;42.714;23.310;2024-01-06T12:57:14;16.40;;;8.90;;
20104;SDS011;10212;42.714;23.310;2024-01-06T13:07:14;12.95;;;8.68;;
20104;SDS011;10212;42.714;23.310;2024-01-06T13:17:15;19.23;;;9.90;;
20104;SDS011;10212;42.714;23.310;2024-01-06T13:27:15;15.80;;;8.88;;
20104;SDS011;10212;42.714;23.310;2024-01-06T13:37:16;16.42;;;8.73;;
20104;SDS011;10212;42.714;23.310;2024-01-06T13:47:16;18.92;;;9.05;;
20104;SDS011;10212;42.714;23.310;2024-01-06T13:57:16;16.92;;;8.60;;
20104;SDS011;10212;42.714;23.310;2024-01-06T14:07:17;17.48;;;9.38;;
20104;SDS011;10212;42.714;23.310;2024-01-06T14:17:22;17.60;;;9.73;;
20104;SDS011;10212;42.714;23.310;2024-01-06T14:27:23;23.15;;;8.93;;
20104;SDS011;10212;42.714;23.310;2024-01-06T14:37:23;13.90;;;8.70;;
20104;SDS011;10212;42.714;23.310;2024-01-06T14:47:24;21.70;;;10.93;;
20104;SDS011;10212;42.714;23.310;2024-01-06T14:57:24;22.35;;;9.65;;
20104;SDS011;10212;42.714;23.310;2024-01-06T15:07:25;24.75;;;10.98;;
20104;SDS011;10212;42.714;23.310;2024-01-06T15:17:25;18.70;;;9.80;;
20104;SDS011;10212;42.714;23.310;2024-01-06T15:27:25;21.42;;;9.98;;
20104;SDS011;10212;42.714;23.310;2024-01-06T15:37:26;32.38;;;11.90;;
20104;SDS011;10212;42.714;23.310;2024-01-06T15:47:26;23.10;;;11.10;;
20104;SDS011;10212;42.714;23.310;2024-01-06T15:57:27;29.77;;;12.52;;
20104;SDS011;10212;42.714;23.310;2024-01-06T16:07:30;32.85;;;15.43;;
20104;SDS011;10212;42.714;23.310;2024-01-06T16:17:30;39.85;;;17.30;;
20104;SDS011;10212;42.714;23.310;2024-01-06T16:27:31;38.50;;;16.92;;
20104;SDS011;10212;42.714;23.310;2024-01-06T16:37:32;39.47;;;20.42;;
20104;SDS011;10212;42.714;23.310;2024-01-06T16:47:32;34.53;;;18.33;;
20104;SDS011;10212;42.714;23.310;2024-01-06T16:57:33;39.90;;;18.75;;
20104;SDS011;10212;42.714;23.310;2024-01-06T17:07:34;39.53;;;16.70;;
20104;SDS011;10212;42.714;23.310;2024-01-06T17:17:35;34.85;;;13.95;;
20104;SDS011;10212;42.714;23.310;2024-01-06T17:27:37;32.53;;;15.95;;
20104;SDS011;10212;42.714;23.310;2024-01-06T17:37:37;33.35;;;16.73;;
20104;SDS011;10212;42.714;23.310;2024-01-06T17:47:37;36.78;;;15.73;;
20104;SDS011;10212;42.714;23.310;2024-01-06T17:57:40;35.90;;;15.57;;
20104;SDS011;10212;42.714;23.310;2024-01-06T18:07:41;27.77;;;14.00;;
20104;SDS011;10212;42.714;23.310;2024-01-06T18:17:42;32.60;;;15.43;;
20104;SDS011;10212;42.714;23.310;2024-01-06T18:27:42;28.48;;;16.02;;
20104;SDS011;10212;42.714;23.310;2024-01-06T18:37:45;30.50;;;14.95;;
20104;SDS011;10212;42.714;23.310;2024-01-06T18:47:45;29.65;;;15.00;;
20104;SDS011;10212;42.714;23.310;2024-01-06T18:57:45;21.27;;;10.73;;
20104;SDS011;10212;42.714;23.310;2024-01-06T19:07:46;18.73;;;9.32;;
20104;SDS011;10212;42.714;23.310;2024-01-06T19:17:47;13.25;;;8.15;;
20104;SDS011;10212;42.714;23.310;2024-01-06T19:27:47;15.60;;;7.63;;
20104;SDS011;10212;42.714;23.310;2024-01-06T19:37:48;17.98;;;7.72;;
20104;SDS011;10212;42.714;23.310;2024-01-06T19:47:48;13.43;;;8.40;;
20104;SDS011;10212;42.714;23.310;2024-01-06T19:57:48;17.73;;;8.70;;
20104;SDS011;10212;42.714;23.310;2024-01-06T20:07:49;18.27;;;10.02;;
20104;SDS011;10212;42.714;23.310;2024-01-06T20:17:50;19.38;;;10.57;;
20104;SDS011;10212;42.714;23.310;2024-01-06T20:27:50;21.33;;;11.10;;
20104;SDS011;10212;42.714;23.310;2024-01-06T20:37:51;17.83;;;10.77;;
20104;SDS011;10212;42.714;23.310;2024-01-06T20:47:53;18.15;;;10.20;;
20104;SDS011;10212;42.714;23.310;2024-01-06T20:57:54;20.02;;;9.75;;
20104;SDS011;10212;42.714;23.310;2024-01-06T21:07:55;22.40;;;11.40;;
20104;SDS011;10212;42.714;23.310;2024-01-06T21:17:56;27.02;;;13.70;;
20104;SDS011;10212;42.714;23.310;2024-01-06T21:27:57;21.92;;;12.45;;
20104;SDS011;10212;42.714;23.310;2024-01-06T21:37:58;28.02;;;16.05;;
20104;SDS011;10212;42.714;23.310;2024-01-06T21:47:59;41.65;;;21.30;;
20104;SDS011;10212;42.714;23.310;2024-01-06T21:57:59;41.90;;;22.30;;
20104;SDS011;10212;42.714;23.310;2024-01-06T22:08:00;47.50;;;24.10;;
20104;SDS011;10212;42.714;23.310;2024-01-06T22:18:00;48.67;;;22.90;;
20104;SDS011;10212;42.714;23.310;2024-01-06T22:28:01;48.45;;;25.13;;
20104;SDS011;10212;42.714;23.310;2024-01-06T22:38:01;48.90;;;23.20;;
20104;SDS011;10212;42.714;23.310;2024-01-06T22:48:02;44.17;;;22.08;;
20104;SDS011;10212;42.714;23.310;2024-01-06T22:58:03;35.67;;;19.92;;
20104;SDS011;10212;42.714;23.310;2024-01-06T23:08:03;45.45;;;22.65;;
20104;SDS011;10212;42.714;23.310;2024-01-06T23:18:04;42.35;;;21.77;;
20104;SDS011;10212;42.714;23.310;2024-01-06T23:28:05;42.63;;;21.38;;
20104;SDS011;10212;42.714;23.310;2024-01-06T23:38:05;41.03;;;21.17;;
20104;SDS011;10212;42.714;23.310;2024-01-06T23:48:06;39.15;;;20.25;;
20104;SDS011;10212;42.714;23.310;2024-01-06T23:58:07;43.40;;;22.23;;
